sensor_id;sensor_type;location;lat;lon;timestamp;pressure;altitude;pressure_sealevel;temperature;humidity
48792;BME280;34587;48.816;9.420;2023-02-18T00:00:20;99695.53;;;11.75;74.83
48792;BME280;34587;48.816;9.420;2023-02-18T00:02:47;99692.94;;;11.72;74.87
48792;BME280;34587;48.816;9.420;2023-02-18T00:05:14;99694.63;;;11.82;74.61
48792;BME280;34587;48.816;9.420;2023-02-18T00:07:40;99697.19;;;11.79;74.56
48792;BME280;34587;48.816;9.420;2023-02-18T00:10:09;99694.66;;;11.76;74.54
48792;BME280;34587;48.816;9.420;2023-02-18T00:12:35;99686.88;;;11.70;74.91
48792;BME280;34587;48.816;9.420;2023-02-18T00:15:00;99687.75;;;11.75;74.41
48792;BME280;34587;48.816;9.420;2023-02-18T00:17:27;99689.47;;;11.70;74.61
48792;BME280;34587;48.816;9.420;2023-02-18T00:19:53;99692.88;;;11.78;74.26
48792;BME280;34587;48.816;9.420;2023-02-18T00:22:18;99686.94;;;11.64;74.53
48792;BME280;34587;48.816;9.420;2023-02-18T00:24:43;99689.44;;;11.74;74.29
48792;BME280;34587;48.816;9.420;2023-02-18T00:27:09;99687.75;;;11.72;74.38
48792;BME280;34587;48.816;9.420;2023-02-18T00:29:34;99688.69;;;11.63;74.27
48792;BME280;34587;48.816;9.420;2023-02-18T00:31:59;99686.06;;;11.68;74.55
48792;BME280;34587;48.816;9.420;2023-02-18T00:34:25;99689.53;;;11.64;74.56
48792;BME280;34587;48.816;9.420;2023-02-18T00:36:50;99686.91;;;11.65;74.45
48792;BME280;34587;48.816;9.420;2023-02-18T00:39:16;99683.38;;;11.80;73.38
48792;BME280;34587;48.816;9.420;2023-02-18T00:41:42;99683.41;;;11.75;73.36
48792;BME280;34587;48.816;9.420;2023-02-18T00:44:08;99684.28;;;11.70;73.84
48792;BME280;34587;48.816;9.420;2023-02-18T00:46:34;99680.00;;;11.70;73.80
48792;BME280;34587;48.816;9.420;2023-02-18T00:48:59;99673.91;;;11.73;73.44
48792;BME280;34587;48.816;9.420;2023-02-18T00:51:24;99668.69;;;11.76;73.32
48792;BME280;34587;48.816;9.420;2023-02-18T00:53:50;99653.19;;;11.67;73.50
48792;BME280;34587;48.816;9.420;2023-02-18T00:56:16;99659.19;;;11.75;73.32
48792;BME280;34587;48.816;9.420;2023-02-18T00:58:41;99642.72;;;11.76;73.26
48792;BME280;34587;48.816;9.420;2023-02-18T05:16:03;99576.63;;;11.14;72.86
48792;BME280;34587;48.816;9.420;2023-02-18T05:18:28;99574.94;;;11.05;73.56
48792;BME280;34587;48.816;9.420;2023-02-18T05:20:53;99574.09;;;11.07;73.41
48792;BME280;34587;48.816;9.420;2023-02-18T05:23:19;99568.06;;;11.02;73.94
48792;BME280;34587;48.816;9.420;2023-02-18T05:25:45;99568.97;;;10.95;74.30
48792;BME280;34587;48.816;9.420;2023-02-18T05:28:10;99563.78;;;10.92;74.57
48792;BME280;34587;48.816;9.420;2023-02-18T05:30:36;99568.06;;;10.99;74.39
48792;BME280;34587;48.816;9.420;2023-02-18T05:33:01;99558.56;;;10.97;74.48
48792;BME280;34587;48.816;9.420;2023-02-18T05:35:26;99556.84;;;10.97;74.51
48792;BME280;34587;48.816;9.420;2023-02-18T05:37:52;99553.41;;;10.98;74.22
48792;BME280;34587;48.816;9.420;2023-02-18T05:40:17;99559.44;;;10.96;74.48
48792;BME280;34587;48.816;9.420;2023-02-18T05:42:42;99562.91;;;10.99;74.31
48792;BME280;34587;48.816;9.420;2023-02-18T05:45:08;99562.94;;;10.93;74.79
48792;BME280;34587;48.816;9.420;2023-02-18T05:47:33;99568.16;;;10.87;74.95
48792;BME280;34587;48.816;9.420;2023-02-18T05:49:59;99554.34;;;10.82;75.07
48792;BME280;34587;48.816;9.420;2023-02-18T05:52:24;99570.72;;;10.93;74.61
48792;BME280;34587;48.816;9.420;2023-02-18T05:54:49;99575.03;;;10.91;74.74
48792;BME280;34587;48.816;9.420;2023-02-18T05:57:15;99563.81;;;10.91;74.63
48792;BME280;34587;48.816;9.420;2023-02-18T05:59:40;99568.09;;;10.96;74.48
48792;BME280;34587;48.816;9.420;2023-02-18T06:02:06;99561.19;;;10.98;73.99
48792;BME280;34587;48.816;9.420;2023-02-18T06:04:31;99562.06;;;10.91;74.58
48792;BME280;34587;48.816;9.420;2023-02-18T06:06:57;99557.75;;;10.93;74.71
48792;BME280;34587;48.816;9.420;2023-02-18T06:09:22;99556.00;;;10.95;74.10
48792;BME280;34587;48.816;9.420;2023-02-18T06:11:48;99546.47;;;10.97;74.63
48792;BME280;34587;48.816;9.420;2023-02-18T06:14:13;99541.38;;;10.85;75.04
48792;BME280;34587;48.816;9.420;2023-02-18T06:16:39;99536.19;;;10.85;75.10
48792;BME280;34587;48.816;9.420;2023-02-18T06:19:04;99550.06;;;10.78;75.59
48792;BME280;34587;48.816;9.420;2023-02-18T06:21:29;99556.09;;;10.85;75.51
48792;BME280;34587;48.816;9.420;2023-02-18T06:23:55;99563.78;;;10.92;75.08
48792;BME280;34587;48.816;9.420;2023-02-18T06:26:20;99564.75;;;10.79;75.34
48792;BME280;34587;48.816;9.420;2023-02-18T06:28:45;99567.25;;;10.91;74.75
48792;BME280;34587;48.816;9.420;2023-02-18T06:31:11;99561.13;;;11.01;74.34
48792;BME280;34587;48.816;9.420;2023-02-18T06:33:36;99566.41;;;10.94;74.61
48792;BME280;34587;48.816;9.420;2023-02-18T06:36:05;99567.19;;;11.03;74.41
48792;BME280;34587;48.816;9.420;2023-02-18T06:38:36;99571.59;;;10.91;75.00
48792;BME280;34587;48.816;9.420;2023-02-18T06:41:02;99567.31;;;10.85;75.62
48792;BME280;34587;48.816;9.420;2023-02-18T06:43:28;99566.38;;;10.92;75.07
48792;BME280;34587;48.816;9.420;2023-02-18T06:45:53;99565.63;;;10.79;76.15
48792;BME280;34587;48.816;9.420;2023-02-18T06:48:19;99565.53;;;10.90;75.33
48792;BME280;34587;48.816;9.420;2023-02-18T06:50:44;99568.97;;;10.98;75.03
48792;BME280;34587;48.816;9.420;2023-02-18T06:53:10;99569.81;;;10.96;75.12
48792;BME280;34587;48.816;9.420;2023-02-18T06:55:36;99565.41;;;11.09;74.29
48792;BME280;34587;48.816;9.420;2023-02-18T06:58:01;99561.09;;;11.12;74.45
48792;BME280;34587;48.816;9.420;2023-02-18T07:00:27;99570.56;;;11.12;74.24
48792;BME280;34587;48.816;9.420;2023-02-18T07:02:52;99554.09;;;11.20;74.05
48792;BME280;34587;48.816;9.420;2023-02-18T07:05:17;99554.13;;;11.14;74.15
48792;BME280;34587;48.816;9.420;2023-02-18T07:07:43;99548.94;;;11.16;74.21
48792;BME280;34587;48.816;9.420;2023-02-18T07:10:08;99559.31;;;11.17;74.07
48792;BME280;34587;48.816;9.420;2023-02-18T07:12:34;99563.59;;;11.20;74.38
48792;BME280;34587;48.816;9.420;2023-02-18T07:14:59;99567.94;;;11.16;74.55
48792;BME280;34587;48.816;9.420;2023-02-18T07:17:24;99568.00;;;11.09;74.81
48792;BME280;34587;48.816;9.420;2023-02-18T07:19:50;99561.81;;;11.25;73.88
48792;BME280;34587;48.816;9.420;2023-02-18T07:22:15;99556.69;;;11.19;74.26
48792;BME280;34587;48.816;9.420;2023-02-18T07:24:41;99559.34;;;11.10;74.76
48792;BME280;34587;48.816;9.420;2023-02-18T07:27:06;99554.97;;;11.18;74.30
48792;BME280;34587;48.816;9.420;2023-02-18T07:29:32;99554.03;;;11.26;73.51
48792;BME280;34587;48.816;9.420;2023-02-18T07:31:57;99543.63;;;11.32;73.86
48792;BME280;34587;48.816;9.420;2023-02-18T07:34:22;99549.59;;;11.39;73.29
48792;BME280;34587;48.816;9.420;2023-02-18T07:36:48;99542.56;;;11.50;72.90
48792;BME280;34587;48.816;9.420;2023-02-18T07:39:13;99541.72;;;11.48;72.91
48792;BME280;34587;48.816;9.420;2023-02-18T07:41:38;99540.84;;;11.49;72.88
48792;BME280;34587;48.816;9.420;2023-02-18T07:44:04;99537.28;;;11.61;72.28
48792;BME280;34587;48.816;9.420;2023-02-18T07:46:29;99533.94;;;11.48;72.60
48792;BME280;34587;48.816;9.420;2023-02-18T07:48:58;99524.25;;;11.64;71.87
48792;BME280;34587;48.816;9.420;2023-02-18T07:51:23;99526.91;;;11.59;72.26
48792;BME280;34587;48.816;9.420;2023-02-18T07:53:48;99525.13;;;11.65;71.84
48792;BME280;34587;48.816;9.420;2023-02-18T07:56:14;99514.69;;;11.71;71.60
48792;BME280;34587;48.816;9.420;2023-02-18T07:58:39;99512.84;;;11.85;71.15
48792;BME280;34587;48.816;9.420;2023-02-18T08:01:10;99517.06;;;11.95;70.40
48792;BME280;34587;48.816;9.420;2023-02-18T08:03:36;99518.72;;;11.98;70.36
48792;BME280;34587;48.816;9.420;2023-02-18T08:06:03;99512.72;;;11.96;70.33
48792;BME280;34587;48.816;9.420;2023-02-18T08:08:30;99510.88;;;12.02;69.53
48792;BME280;34587;48.816;9.420;2023-02-18T08:10:57;99521.34;;;11.99;69.76
48792;BME280;34587;48.816;9.420;2023-02-18T08:13:23;99510.06;;;12.00;69.49
48792;BME280;34587;48.816;9.420;2023-02-18T08:15:49;99510.81;;;12.08;69.71
48792;BME280;34587;48.816;9.420;2023-02-18T08:18:22;99514.28;;;12.07;70.07
48792;BME280;34587;48.816;9.420;2023-02-18T08:20:48;99514.28;;;12.07;68.80
48792;BME280;34587;48.816;9.420;2023-02-18T08:23:15;99515.13;;;12.11;69.42
48792;BME280;34587;48.816;9.420;2023-02-18T08:25:45;99509.78;;;12.22;68.89
48792;BME280;34587;48.816;9.420;2023-02-18T08:28:11;99520.91;;;12.33;68.31
48792;BME280;34587;48.816;9.420;2023-02-18T08:30:36;99517.16;;;12.54;68.01
48792;BME280;34587;48.816;9.420;2023-02-18T08:33:01;99516.97;;;12.66;67.62
48792;BME280;34587;48.816;9.420;2023-02-18T08:35:27;99518.44;;;12.84;66.47
48792;BME280;34587;48.816;9.420;2023-02-18T08:37:52;99501.41;;;13.20;65.70
48792;BME280;34587;48.816;9.420;2023-02-18T08:40:17;99507.00;;;13.48;64.62
48792;BME280;34587;48.816;9.420;2023-02-18T08:42:42;99504.69;;;13.78;63.14
48792;BME280;34587;48.816;9.420;2023-02-18T08:45:08;99520.63;;;13.64;63.75
48792;BME280;34587;48.816;9.420;2023-02-18T08:47:33;99510.28;;;14.04;61.64
48792;BME280;34587;48.816;9.420;2023-02-18T08:49:58;99501.31;;;13.74;63.08
48792;BME280;34587;48.816;9.420;2023-02-18T08:52:25;99497.44;;;13.50;63.73
48792;BME280;34587;48.816;9.420;2023-02-18T08:54:50;99489.50;;;13.56;63.19
48792;BME280;34587;48.816;9.420;2023-02-18T08:57:16;99504.22;;;13.57;63.23
48792;BME280;34587;48.816;9.420;2023-02-18T08:59:41;99504.66;;;13.81;62.87
48792;BME280;34587;48.816;9.420;2023-02-18T09:02:06;99501.22;;;13.79;62.52
48792;BME280;34587;48.816;9.420;2023-02-18T09:04:32;99491.69;;;14.20;60.88
48792;BME280;34587;48.816;9.420;2023-02-18T09:06:57;99490.69;;;14.27;60.95
48792;BME280;34587;48.816;9.420;2023-02-18T09:09:23;99491.19;;;14.04;61.84
48792;BME280;34587;48.816;9.420;2023-02-18T09:11:48;99492.66;;;14.17;61.46
48792;BME280;34587;48.816;9.420;2023-02-18T09:14:14;99485.47;;;13.85;61.74
48792;BME280;34587;48.816;9.420;2023-02-18T09:16:40;99493.25;;;13.86;61.78
48792;BME280;34587;48.816;9.420;2023-02-18T09:19:05;99478.22;;;14.80;59.34
48792;BME280;34587;48.816;9.420;2023-02-18T09:21:31;99472.09;;;15.16;58.08
48792;BME280;34587;48.816;9.420;2023-02-18T09:23:57;99471.91;;;15.23;57.76
48792;BME280;34587;48.816;9.420;2023-02-18T09:26:22;99478.59;;;15.68;56.53
48792;BME280;34587;48.816;9.420;2023-02-18T09:28:50;99476.63;;;15.75;55.87
48792;BME280;34587;48.816;9.420;2023-02-18T09:31:18;99476.34;;;17.28;52.20
48792;BME280;34587;48.816;9.420;2023-02-18T09:33:47;99471.63;;;16.28;53.27
48792;BME280;34587;48.816;9.420;2023-02-18T09:36:13;99453.81;;;16.41;53.37
48792;BME280;34587;48.816;9.420;2023-02-18T09:38:39;99470.06;;;15.93;54.37
48792;BME280;34587;48.816;9.420;2023-02-18T09:41:08;99466.28;;;15.05;56.74
48792;BME280;34587;48.816;9.420;2023-02-18T09:43:38;99464.69;;;15.34;56.31
48792;BME280;34587;48.816;9.420;2023-02-18T09:46:16;99453.66;;;16.17;53.88
48792;BME280;34587;48.816;9.420;2023-02-18T09:48:43;99449.69;;;17.15;50.25
48792;BME280;34587;48.816;9.420;2023-02-18T09:51:13;99457.22;;;16.99;50.40
48792;BME280;34587;48.816;9.420;2023-02-18T09:53:40;99450.41;;;16.65;52.79
48792;BME280;34587;48.816;9.420;2023-02-18T09:56:08;99446.53;;;17.05;51.10
48792;BME280;34587;48.816;9.420;2023-02-18T09:58:36;99441.28;;;16.23;52.36
48792;BME280;34587;48.816;9.420;2023-02-18T10:01:11;99442.81;;;15.71;53.82
48792;BME280;34587;48.816;9.420;2023-02-18T10:03:39;99451.53;;;16.01;52.70
48792;BME280;34587;48.816;9.420;2023-02-18T10:06:15;99456.22;;;16.47;52.85
48792;BME280;34587;48.816;9.420;2023-02-18T10:08:44;99444.25;;;16.40;52.56
48792;BME280;34587;48.816;9.420;2023-02-18T10:11:13;99451.97;;;15.85;54.02
48792;BME280;34587;48.816;9.420;2023-02-18T10:13:41;99452.97;;;16.39;52.81
48792;BME280;34587;48.816;9.420;2023-02-18T10:16:07;99446.31;;;16.01;53.76
48792;BME280;34587;48.816;9.420;2023-02-18T10:18:40;99456.19;;;14.91;56.03
48792;BME280;34587;48.816;9.420;2023-02-18T10:21:15;99462.63;;;15.12;55.24
48792;BME280;34587;48.816;9.420;2023-02-18T10:23:58;99462.72;;;15.42;55.16
48792;BME280;34587;48.816;9.420;2023-02-18T10:26:24;99460.69;;;15.53;54.75
48792;BME280;34587;48.816;9.420;2023-02-18T10:28:50;99463.91;;;14.96;56.03
48792;BME280;34587;48.816;9.420;2023-02-18T10:31:21;99458.06;;;15.53;54.37
48792;BME280;34587;48.816;9.420;2023-02-18T10:36:35;99469.16;;;14.95;56.31
48792;BME280;34587;48.816;9.420;2023-02-18T10:50:24;99477.22;;;14.45;57.19
48792;BME280;34587;48.816;9.420;2023-02-18T10:52:52;99469.50;;;14.42;57.99
48792;BME280;34587;48.816;9.420;2023-02-18T10:55:33;99474.03;;;14.34;57.79
48792;BME280;34587;48.816;9.420;2023-02-18T10:57:59;99465.09;;;14.46;58.02
48792;BME280;34587;48.816;9.420;2023-02-18T11:00:26;99473.09;;;14.36;57.58
48792;BME280;34587;48.816;9.420;2023-02-18T11:03:21;99456.00;;;14.23;58.31
48792;BME280;34587;48.816;9.420;2023-02-18T11:05:50;99448.16;;;14.25;58.25
48792;BME280;34587;48.816;9.420;2023-02-18T11:08:25;99448.94;;;14.28;58.21
48792;BME280;34587;48.816;9.420;2023-02-18T11:10:51;99445.84;;;14.11;58.28
48792;BME280;34587;48.816;9.420;2023-02-18T11:13:26;99441.44;;;14.14;57.85
48792;BME280;34587;48.816;9.420;2023-02-18T11:18:38;99432.41;;;14.29;57.66
48792;BME280;34587;48.816;9.420;2023-02-18T11:21:31;99423.13;;;14.18;57.93
48792;BME280;34587;48.816;9.420;2023-02-18T11:24:06;99427.34;;;14.23;57.29
48792;BME280;34587;48.816;9.420;2023-02-18T11:26:35;99428.13;;;14.27;57.54
48792;BME280;34587;48.816;9.420;2023-02-18T11:29:14;99413.38;;;14.26;57.09
48792;BME280;34587;48.816;9.420;2023-02-18T11:31:47;99416.97;;;14.22;57.36
48792;BME280;34587;48.816;9.420;2023-02-18T11:34:17;99411.59;;;14.28;57.61
48792;BME280;34587;48.816;9.420;2023-02-18T11:36:43;99411.81;;;14.19;57.03
48792;BME280;34587;48.816;9.420;2023-02-18T11:39:19;99407.78;;;14.43;57.05
48792;BME280;34587;48.816;9.420;2023-02-18T11:41:52;99407.09;;;14.72;56.18
48792;BME280;34587;48.816;9.420;2023-02-18T11:44:21;99396.63;;;14.75;55.86
48792;BME280;34587;48.816;9.420;2023-02-18T11:47:01;99407.41;;;14.59;55.57
48792;BME280;34587;48.816;9.420;2023-02-18T11:49:28;99401.31;;;14.60;55.70
48792;BME280;34587;48.816;9.420;2023-02-18T11:51:54;99393.88;;;15.13;54.10
48792;BME280;34587;48.816;9.420;2023-02-18T11:54:28;99400.19;;;14.71;55.32
48792;BME280;34587;48.816;9.420;2023-02-18T11:57:01;99394.56;;;14.50;55.99
48792;BME280;34587;48.816;9.420;2023-02-18T11:59:29;99390.13;;;14.55;55.31
48792;BME280;34587;48.816;9.420;2023-02-18T12:02:03;99393.66;;;14.53;55.29
48792;BME280;34587;48.816;9.420;2023-02-18T12:10:24;99380.00;;;14.40;54.38
48792;BME280;34587;48.816;9.420;2023-02-18T12:12:59;99380.44;;;14.60;54.29
48792;BME280;34587;48.816;9.420;2023-02-18T12:18:41;99378.13;;;14.48;54.59
48792;BME280;34587;48.816;9.420;2023-02-18T12:21:20;99382.56;;;14.43;54.58
48792;BME280;34587;48.816;9.420;2023-02-18T12:24:12;99375.41;;;14.53;54.65
48792;BME280;34587;48.816;9.420;2023-02-18T12:29:33;99382.94;;;14.26;54.96
48792;BME280;34587;48.816;9.420;2023-02-18T12:37:59;99362.03;;;14.29;55.06
48792;BME280;34587;48.816;9.420;2023-02-18T12:40:51;99368.13;;;14.28;55.73
48792;BME280;34587;48.816;9.420;2023-02-18T12:55:26;99348.88;;;13.98;56.90
48792;BME280;34587;48.816;9.420;2023-02-18T12:58:09;99344.09;;;14.15;56.21
48792;BME280;34587;48.816;9.420;2023-02-18T13:03:43;99345.53;;;14.29;55.07
48792;BME280;34587;48.816;9.420;2023-02-18T13:14:21;99334.66;;;14.47;53.84
48792;BME280;34587;48.816;9.420;2023-02-18T13:16:51;99326.00;;;14.45;53.52
48792;BME280;34587;48.816;9.420;2023-02-18T13:19:31;99332.75;;;14.55;53.61
48792;BME280;34587;48.816;9.420;2023-02-18T13:22:01;99326.38;;;14.30;53.85
48792;BME280;34587;48.816;9.420;2023-02-18T13:24:39;99331.38;;;14.39;53.99
48792;BME280;34587;48.816;9.420;2023-02-18T13:27:23;99330.47;;;14.42;54.16
48792;BME280;34587;48.816;9.420;2023-02-18T13:30:20;99318.50;;;14.33;53.87
48792;BME280;34587;48.816;9.420;2023-02-18T13:35:42;99316.31;;;14.52;53.75
48792;BME280;34587;48.816;9.420;2023-02-18T13:40:49;99324.47;;;14.38;54.21
48792;BME280;34587;48.816;9.420;2023-02-18T13:45:43;99315.03;;;14.32;54.91
48792;BME280;34587;48.816;9.420;2023-02-18T13:48:27;99306.28;;;14.35;54.10
48792;BME280;34587;48.816;9.420;2023-02-18T13:50:59;99308.38;;;14.56;54.16
48792;BME280;34587;48.816;9.420;2023-02-18T13:53:29;99306.88;;;14.46;53.97
48792;BME280;34587;48.816;9.420;2023-02-18T13:56:08;99301.59;;;14.49;53.39
48792;BME280;34587;48.816;9.420;2023-02-18T13:58:39;99298.41;;;14.72;53.00
48792;BME280;34587;48.816;9.420;2023-02-18T14:03:54;99291.03;;;15.19;51.91
48792;BME280;34587;48.816;9.420;2023-02-18T14:08:51;99285.69;;;15.24;50.68
48792;BME280;34587;48.816;9.420;2023-02-18T14:11:33;99296.28;;;15.17;50.51
48792;BME280;34587;48.816;9.420;2023-02-18T14:14:14;99281.25;;;15.26;50.59
48792;BME280;34587;48.816;9.420;2023-02-18T14:17:23;99279.19;;;15.37;50.29
48792;BME280;34587;48.816;9.420;2023-02-18T14:22:31;99269.09;;;14.95;50.56
48792;BME280;34587;48.816;9.420;2023-02-18T14:25:25;99265.50;;;14.99;50.40
48792;BME280;34587;48.816;9.420;2023-02-18T14:28:01;99265.25;;;15.07;50.39
48792;BME280;34587;48.816;9.420;2023-02-18T14:30:39;99269.16;;;15.23;50.24
48792;BME280;34587;48.816;9.420;2023-02-18T14:33:05;99273.16;;;15.35;50.02
48792;BME280;34587;48.816;9.420;2023-02-18T14:35:45;99263.19;;;15.20;49.58
48792;BME280;34587;48.816;9.420;2023-02-18T14:38:25;99262.06;;;15.28;50.21
48792;BME280;34587;48.816;9.420;2023-02-18T14:48:58;99272.94;;;14.82;51.75
48792;BME280;34587;48.816;9.420;2023-02-18T14:51:31;99279.66;;;14.58;52.30
48792;BME280;34587;48.816;9.420;2023-02-18T14:54:03;99270.06;;;14.58;52.07
48792;BME280;34587;48.816;9.420;2023-02-18T14:56:31;99266.16;;;14.40;52.97
48792;BME280;34587;48.816;9.420;2023-02-18T14:59:02;99257.34;;;14.45;53.03
48792;BME280;34587;48.816;9.420;2023-02-18T15:01:34;99266.31;;;14.34;52.99
48792;BME280;34587;48.816;9.420;2023-02-18T15:04:00;99271.47;;;14.37;53.20
48792;BME280;34587;48.816;9.420;2023-02-18T15:06:34;99268.75;;;14.42;53.60
48792;BME280;34587;48.816;9.420;2023-02-18T15:09:02;99262.81;;;14.35;53.80
48792;BME280;34587;48.816;9.420;2023-02-18T15:11:39;99268.75;;;14.42;53.73
48792;BME280;34587;48.816;9.420;2023-02-18T15:14:16;99268.84;;;14.37;54.14
48792;BME280;34587;48.816;9.420;2023-02-18T15:16:43;99265.41;;;14.37;53.83
48792;BME280;34587;48.816;9.420;2023-02-18T15:19:18;99274.19;;;14.33;54.28
48792;BME280;34587;48.816;9.420;2023-02-18T15:21:46;99269.19;;;14.24;54.66
48792;BME280;34587;48.816;9.420;2023-02-18T15:24:33;99276.97;;;14.25;54.42
48792;BME280;34587;48.816;9.420;2023-02-18T15:27:22;99283.41;;;14.10;54.27
48792;BME280;34587;48.816;9.420;2023-02-18T15:29:50;99285.22;;;14.08;55.09
48792;BME280;34587;48.816;9.420;2023-02-18T15:32:21;99281.19;;;13.95;55.29
48792;BME280;34587;48.816;9.420;2023-02-18T15:34:55;99279.59;;;13.89;55.30
48792;BME280;34587;48.816;9.420;2023-02-18T15:37:21;99285.84;;;13.81;55.48
48792;BME280;34587;48.816;9.420;2023-02-18T15:39:47;99290.34;;;13.74;55.44
48792;BME280;34587;48.816;9.420;2023-02-18T15:42:24;99281.69;;;13.72;55.97
48792;BME280;34587;48.816;9.420;2023-02-18T15:44:54;99277.59;;;13.63;56.48
48792;BME280;34587;48.816;9.420;2023-02-18T15:47:19;99281.84;;;13.66;56.31
48792;BME280;34587;48.816;9.420;2023-02-18T15:49:49;99295.81;;;13.62;56.73
48792;BME280;34587;48.816;9.420;2023-02-18T15:52:15;99286.59;;;13.47;57.25
48792;BME280;34587;48.816;9.420;2023-02-18T15:54:46;99272.78;;;13.45;57.32
48792;BME280;34587;48.816;9.420;2023-02-18T15:57:13;99278.94;;;13.41;58.09
48792;BME280;34587;48.816;9.420;2023-02-18T15:59:46;99272.84;;;13.42;57.66
48792;BME280;34587;48.816;9.420;2023-02-18T16:02:19;99266.06;;;13.35;57.93
48792;BME280;34587;48.816;9.420;2023-02-18T16:04:56;99269.59;;;13.31;57.97
48792;BME280;34587;48.816;9.420;2023-02-18T16:07:30;99265.31;;;13.30;58.11
48792;BME280;34587;48.816;9.420;2023-02-18T16:10:21;99278.09;;;13.39;58.06
48792;BME280;34587;48.816;9.420;2023-02-18T16:12:53;99276.53;;;13.32;58.18
48792;BME280;34587;48.816;9.420;2023-02-18T16:15:30;99269.66;;;13.28;58.31
48792;BME280;34587;48.816;9.420;2023-02-18T16:17:56;99269.66;;;13.28;58.75
48792;BME280;34587;48.816;9.420;2023-02-18T16:22:58;99272.41;;;13.22;58.88
48792;BME280;34587;48.816;9.420;2023-02-18T16:25:25;99269.75;;;13.25;58.07
48792;BME280;34587;48.816;9.420;2023-02-18T16:28:01;99262.91;;;13.18;58.62
48792;BME280;34587;48.816;9.420;2023-02-18T16:30:30;99259.25;;;13.28;58.17
48792;BME280;34587;48.816;9.420;2023-02-18T16:32:57;99259.38;;;13.22;58.58
48792;BME280;34587;48.816;9.420;2023-02-18T16:35:24;99264.63;;;13.19;58.54
48792;BME280;34587;48.816;9.420;2023-02-18T16:37:52;99258.59;;;13.17;58.77
48792;BME280;34587;48.816;9.420;2023-02-18T16:40:32;99271.59;;;13.17;58.88
48792;BME280;34587;48.816;9.420;2023-02-18T16:43:00;99263.22;;;13.02;59.79
48792;BME280;34587;48.816;9.420;2023-02-18T16:45:35;99268.38;;;13.04;59.34
48792;BME280;34587;48.816;9.420;2023-02-18T16:48:02;99256.31;;;13.01;59.76
48792;BME280;34587;48.816;9.420;2023-02-18T16:50:29;99266.63;;;13.04;59.77
48792;BME280;34587;48.816;9.420;2023-02-18T16:52:55;99263.19;;;13.05;59.33
48792;BME280;34587;48.816;9.420;2023-02-18T16:55:22;99268.38;;;13.05;59.84
48792;BME280;34587;48.816;9.420;2023-02-18T16:57:48;99274.63;;;12.95;60.16
48792;BME280;34587;48.816;9.420;2023-02-18T17:00:15;99275.50;;;12.94;59.88
48792;BME280;34587;48.816;9.420;2023-02-18T17:02:43;99272.81;;;12.99;59.91
48792;BME280;34587;48.816;9.420;2023-02-18T17:05:16;99278.88;;;12.99;59.59
48792;BME280;34587;48.816;9.420;2023-02-18T17:07:41;99284.97;;;12.98;59.75
48792;BME280;34587;48.816;9.420;2023-02-18T17:10:07;99288.56;;;12.93;60.02
48792;BME280;34587;48.816;9.420;2023-02-18T17:12:32;99285.09;;;12.91;60.41
48792;BME280;34587;48.816;9.420;2023-02-18T17:14:57;99289.47;;;12.90;60.13
48792;BME280;34587;48.816;9.420;2023-02-18T17:17:23;99294.69;;;12.89;60.61
48792;BME280;34587;48.816;9.420;2023-02-18T17:19:48;99293.81;;;12.91;60.25
48792;BME280;34587;48.816;9.420;2023-02-18T17:22:13;99287.81;;;12.86;60.83
48792;BME280;34587;48.816;9.420;2023-02-18T17:24:39;99306.97;;;12.82;60.81
48792;BME280;34587;48.816;9.420;2023-02-18T17:27:05;99303.47;;;12.83;60.88
48792;BME280;34587;48.816;9.420;2023-02-18T17:29:30;99308.81;;;12.75;61.46
48792;BME280;34587;48.816;9.420;2023-02-18T17:31:56;99320.09;;;12.74;61.43
48792;BME280;34587;48.816;9.420;2023-02-18T17:34:26;99329.78;;;12.68;61.82
48792;BME280;34587;48.816;9.420;2023-02-18T17:36:53;99329.91;;;12.58;62.51
48792;BME280;34587;48.816;9.420;2023-02-18T17:39:19;99340.25;;;12.61;62.55
48792;BME280;34587;48.816;9.420;2023-02-18T17:41:44;99339.53;;;12.52;63.55
48792;BME280;34587;48.816;9.420;2023-02-18T17:46:41;99339.72;;;12.41;64.04
48792;BME280;34587;48.816;9.420;2023-02-18T17:49:06;99335.47;;;12.37;64.61
48792;BME280;34587;48.816;9.420;2023-02-18T17:51:32;99340.75;;;12.31;65.56
48792;BME280;34587;48.816;9.420;2023-02-18T17:54:03;99346.00;;;12.28;65.77
48792;BME280;34587;48.816;9.420;2023-02-18T17:56:28;99346.00;;;12.28;65.49
48792;BME280;34587;48.816;9.420;2023-02-18T17:58:53;99346.97;;;12.24;65.85
48792;BME280;34587;48.816;9.420;2023-02-18T18:01:19;99349.63;;;12.19;65.87
48792;BME280;34587;48.816;9.420;2023-02-18T18:03:47;99343.50;;;12.23;65.68
48792;BME280;34587;48.816;9.420;2023-02-18T18:06:17;99349.50;;;12.27;65.97
48792;BME280;34587;48.816;9.420;2023-02-18T18:08:42;99353.19;;;12.14;66.70
48792;BME280;34587;48.816;9.420;2023-02-18T18:11:12;99352.22;;;12.19;66.33
48792;BME280;34587;48.816;9.420;2023-02-18T18:13:38;99356.59;;;12.16;66.56
48792;BME280;34587;48.816;9.420;2023-02-18T18:16:04;99353.25;;;12.07;66.91
48792;BME280;34587;48.816;9.420;2023-02-18T18:18:29;99355.03;;;12.05;66.81
48792;BME280;34587;48.816;9.420;2023-02-18T18:20:59;99354.97;;;12.08;66.82
48792;BME280;34587;48.816;9.420;2023-02-18T18:23:25;99356.81;;;12.00;67.11
48792;BME280;34587;48.816;9.420;2023-02-18T18:25:55;99355.94;;;12.01;67.40
48792;BME280;34587;48.816;9.420;2023-02-18T18:28:22;99372.44;;;11.97;67.90
48792;BME280;34587;48.816;9.420;2023-02-18T18:30:50;99369.84;;;11.97;67.85
48792;BME280;34587;48.816;9.420;2023-02-18T18:33:29;99367.38;;;11.88;67.99
48792;BME280;34587;48.816;9.420;2023-02-18T18:35:56;99368.31;;;11.79;68.52
48792;BME280;34587;48.816;9.420;2023-02-18T18:38:22;99371.78;;;11.83;68.28
48792;BME280;34587;48.816;9.420;2023-02-18T18:40:49;99370.91;;;11.81;68.71
48792;BME280;34587;48.816;9.420;2023-02-18T18:43:26;99373.50;;;11.79;68.77
48792;BME280;34587;48.816;9.420;2023-02-18T18:45:52;99383.28;;;11.62;69.28
48792;BME280;34587;48.816;9.420;2023-02-18T18:48:18;99381.50;;;11.66;69.30
48792;BME280;34587;48.816;9.420;2023-02-18T18:50:45;99381.44;;;11.69;69.28